Time,TemperatureF,DewpointF,PressureIn,WindDirection,WindDirectionDegrees,WindSpeedMPH,WindSpeedGustMPH,Humidity,HourlyPrecipIn,Conditions,Clouds,dailyrainin,SolarRadiationWatts/m^2,SoftwareType,DateUTC
2013-02-07 00:00:00,28.0,20.0,-100.00,SSE,157,3.0,-999.0,73,-99.99,,,-99.99,0.000000,,2013-02-07 05:00:00,
2013-02-07 00:42:00,28.0,20.0,-100.00,SSE,157,3.0,-999.0,73,-99.99,,,-99.99,0.000000,,2013-02-07 05:42:00,
2013-02-07 00:52:00,28.0,20.0,-100.00,SSE,157,3.0,-999.0,73,-99.99,,,-99.99,0.000000,,2013-02-07 05:52:00,
2013-02-07 03:00:00,28.0,21.0,-100.00,ESE,112,2.0,-999.0,74,-99.99,,,-99.99,0.000000,,2013-02-07 08:00:00,
2013-02-07 03:42:00,28.0,21.0,-100.00,ESE,112,2.0,-999.0,74,-99.99,,,-99.99,0.000000,,2013-02-07 08:42:00,
2013-02-07 03:52:00,28.0,21.0,-100.00,ESE,112,2.0,-999.0,74,-99.99,,,-99.99,0.000000,,2013-02-07 08:52:00,
2013-02-07 06:00:00,26.0,20.0,-100.00,SE,135,5.0,-999.0,77,-99.99,,,-99.99,0.000000,,2013-02-07 11:00:00,
2013-02-07 06:44:00,26.0,20.0,-100.00,SE,135,5.0,-999.0,77,-99.99,,,-99.99,0.000000,,2013-02-07 11:44:00,
2013-02-07 06:53:00,26.0,20.0,-100.00,SE,135,5.0,-999.0,77,-99.99,,,-99.99,0.000000,,2013-02-07 11:53:00,
2013-02-07 09:00:00,27.0,21.0,-100.00,SE,135,6.0,-999.0,78,-99.99,,,-99.99,22.040001,,2013-02-07 14:00:00,
2013-02-07 09:42:00,27.0,21.0,-100.00,SE,135,6.0,-999.0,78,-99.99,,,-99.99,22.040001,,2013-02-07 14:42:00,
2013-02-07 09:52:00,27.0,21.0,-100.00,SE,135,6.0,-999.0,78,-99.99,,,-99.99,22.040001,,2013-02-07 14:52:00,
2013-02-07 12:00:00,30.0,25.0,-100.00,ESE,112,6.0,-999.0,80,-99.99,,,-99.99,74.239998,,2013-02-07 17:00:00,
2013-02-07 12:43:00,30.0,25.0,-100.00,ESE,112,6.0,-999.0,80,-99.99,,,-99.99,74.239998,,2013-02-07 17:43:00,
2013-02-07 12:52:00,30.0,25.0,-100.00,ESE,112,6.0,-999.0,80,-99.99,,,-99.99,74.239998,,2013-02-07 17:52:00,
2013-02-07 15:00:00,36.0,25.0,-100.00,East,90,5.0,-999.0,65,-99.99,,,-99.99,256.359985,,2013-02-07 20:00:00,
2013-02-07 15:32:00,36.0,25.0,-100.00,East,90,5.0,-999.0,65,-99.99,,,-99.99,256.359985,,2013-02-07 20:32:00,
2013-02-07 15:42:00,36.0,25.0,-100.00,East,90,5.0,-999.0,65,-99.99,,,-99.99,256.359985,,2013-02-07 20:42:00,
2013-02-07 15:52:00,36.0,25.0,-100.00,East,90,5.0,-999.0,65,-99.99,,,-99.99,256.359985,,2013-02-07 20:52:00,
2013-02-07 18:00:00,35.0,26.0,-100.00,East,90,7.0,-999.0,68,-99.99,,,-99.99,16.240000,,2013-02-07 23:00:00,
2013-02-07 18:42:00,35.0,26.0,-100.00,East,90,7.0,-999.0,68,-99.99,,,-99.99,16.240000,,2013-02-07 23:42:00,
2013-02-07 18:52:00,35.0,26.0,-100.00,East,90,7.0,-999.0,68,-99.99,,,-99.99,16.240000,,2013-02-07 23:52:00,
2013-02-07 21:00:00,31.0,29.0,-100.00,East,90,0.0,-999.0,89,-99.99,,,-99.99,0.000000,,2013-02-08 02:00:00,
2013-02-07 21:42:00,31.0,29.0,-100.00,East,90,0.0,-999.0,89,-99.99,,,-99.99,0.000000,,2013-02-08 02:42:00,
2013-02-07 21:52:00,31.0,29.0,-100.00,East,90,0.0,-999.0,89,-99.99,,,-99.99,0.000000,,2013-02-08 02:52:00,